Helmi — SA7925 — position and weather

sailwx.info

Track history (hours):
 
Tides and Currents Weather Stations Pressure Air Temp Water Temp Dewpoint Dewpoint Depression Visibility Wind Speed Wind Dir Waves Ship Positions

Helmi

Last reported at 2017-May-28 11:28 UTC. Time now 2017-May-29 18:51 UTC.
Position N 59°46' E 019°02'.

Length 12 m.

Type: Pleasure craft. MMSI: 265614710.

Date/timePositionNaut miles runAvg speedWind from/ knotsBaromVisibWave heightAir tempDewpointWater temp
2017-May-28 11:28N 59°46' E 019°02'0 0.0
2017-May-28 10:52N 59°46' E 019°02'0 0.0
2017-May-28 10:28N 59°46' E 019°02'2 5.2
2017-May-28 10:00N 59°47' E 019°07'4 7.1
2017-May-28 09:30N 59°50' E 019°05'3 6.8
2017-May-28 09:00N 59°53' E 019°05'4 7.0
2017-May-28 08:30N 59°57' E 019°03'4 7.3
2017-May-28 07:58N 60°00' E 018°59'4 7.4
2017-May-28 07:29N 60°04' E 018°56'4 7.3
2017-May-28 06:59N 60°07' E 018°53'4 7.4
2017-May-28 06:26N 60°11' E 018°50'4 7.6
2017-May-28 05:57N 60°13' E 018°44'4 7.4
2017-May-28 05:28N 60°15' E 018°39'3 6.3
2017-May-28 04:57N 60°17' E 018°34'  
Track history (hours):
 
Tides and Currents Weather Stations Pressure Air Temp Water Temp Dewpoint Dewpoint Depression Visibility Wind Speed Wind Dir Waves Ship Positions

Helmi

Last reported at 2017-May-28 11:28 UTC. Time now 2017-May-29 18:51 UTC.
Position N 59°46' E 019°02'.

Length 12 m.

Type: Pleasure craft. MMSI: 265614710.

Date/timePositionNaut miles runAvg speedWind from/ knotsBaromVisibWave heightAir tempDewpointWater temp
2017-May-28 11:28N 59°46' E 019°02'0 0.0
2017-May-28 10:52N 59°46' E 019°02'0 0.0
2017-May-28 10:28N 59°46' E 019°02'2 5.2
2017-May-28 10:00N 59°47' E 019°07'4 7.1
2017-May-28 09:30N 59°50' E 019°05'3 6.8
2017-May-28 09:00N 59°53' E 019°05'4 7.0
2017-May-28 08:30N 59°57' E 019°03'4 7.3
2017-May-28 07:58N 60°00' E 018°59'4 7.4
2017-May-28 07:29N 60°04' E 018°56'4 7.3
2017-May-28 06:59N 60°07' E 018°53'4 7.4
2017-May-28 06:26N 60°11' E 018°50'4 7.6
2017-May-28 05:57N 60°13' E 018°44'4 7.4
2017-May-28 05:28N 60°15' E 018°39'3 6.3
2017-May-28 04:57N 60°17' E 018°34'  

Dump ship's entire track history